sensor_id;sensor_type;location;lat;lon;timestamp;temperature;humidity
11152;DHT22;5630;49.342;10.802;2023-02-15T00:01:24;0.00;99.90
11152;DHT22;5630;49.342;10.802;2023-02-15T00:03:50;0.00;99.90
11152;DHT22;5630;49.342;10.802;2023-02-15T00:06:16;-0.10;99.90
11152;DHT22;5630;49.342;10.802;2023-02-15T00:08:42;-0.20;99.90
11152;DHT22;5630;49.342;10.802;2023-02-15T00:11:09;-0.30;99.90
11152;DHT22;5630;49.342;10.802;2023-02-15T00:13:35;-0.30;99.90
11152;DHT22;5630;49.342;10.802;2023-02-15T00:16:07;-0.30;99.90
11152;DHT22;5630;49.342;10.802;2023-02-15T00:18:33;-0.40;99.90
11152;DHT22;5630;49.342;10.802;2023-02-15T00:21:04;-0.40;99.90
11152;DHT22;5630;49.342;10.802;2023-02-15T00:23:30;-0.40;99.90
11152;DHT22;5630;49.342;10.802;2023-02-15T00:26:10;-0.30;99.90
11152;DHT22;5630;49.342;10.802;2023-02-15T00:28:36;-0.30;99.90
11152;DHT22;5630;49.342;10.802;2023-02-15T00:31:07;-0.30;99.90
11152;DHT22;5630;49.342;10.802;2023-02-15T00:33:33;-0.50;99.90
11152;DHT22;5630;49.342;10.802;2023-02-15T00:36:00;-0.60;99.90
11152;DHT22;5630;49.342;10.802;2023-02-15T00:38:27;-0.60;99.90
11152;DHT22;5630;49.342;10.802;2023-02-15T00:40:57;-0.60;99.90
11152;DHT22;5630;49.342;10.802;2023-02-15T00:43:24;-0.60;99.90
11152;DHT22;5630;49.342;10.802;2023-02-15T00:45:50;-0.60;99.90
11152;DHT22;5630;49.342;10.802;2023-02-15T00:48:16;-0.60;99.90
11152;DHT22;5630;49.342;10.802;2023-02-15T00:50:45;-0.50;99.90
11152;DHT22;5630;49.342;10.802;2023-02-15T00:53:11;-0.50;99.90
11152;DHT22;5630;49.342;10.802;2023-02-15T00:55:37;-0.50;99.90
11152;DHT22;5630;49.342;10.802;2023-02-15T00:58:04;-0.50;99.90
11152;DHT22;5630;49.342;10.802;2023-02-15T01:00:30;-0.50;99.90
11152;DHT22;5630;49.342;10.802;2023-02-15T01:02:55;-0.60;99.90
11152;DHT22;5630;49.342;10.802;2023-02-15T01:05:21;-0.60;99.90
11152;DHT22;5630;49.342;10.802;2023-02-15T01:07:46;-0.60;99.90
11152;DHT22;5630;49.342;10.802;2023-02-15T01:10:12;-0.60;99.90
11152;DHT22;5630;49.342;10.802;2023-02-15T01:12:38;-0.60;99.90
11152;DHT22;5630;49.342;10.802;2023-02-15T01:15:03;-0.60;99.90
11152;DHT22;5630;49.342;10.802;2023-02-15T01:17:29;-0.50;99.90
11152;DHT22;5630;49.342;10.802;2023-02-15T01:19:55;-0.50;99.90
11152;DHT22;5630;49.342;10.802;2023-02-15T01:22:21;-0.50;99.90
11152;DHT22;5630;49.342;10.802;2023-02-15T01:24:49;-0.40;99.90
11152;DHT22;5630;49.342;10.802;2023-02-15T01:27:15;-0.40;99.90
11152;DHT22;5630;49.342;10.802;2023-02-15T01:29:40;-0.50;99.90
11152;DHT22;5630;49.342;10.802;2023-02-15T01:32:06;-0.50;99.90
11152;DHT22;5630;49.342;10.802;2023-02-15T01:34:32;-0.60;99.90
11152;DHT22;5630;49.342;10.802;2023-02-15T01:36:57;-0.60;99.90
11152;DHT22;5630;49.342;10.802;2023-02-15T01:39:23;-0.50;99.90
11152;DHT22;5630;49.342;10.802;2023-02-15T01:41:48;-0.50;99.90
11152;DHT22;5630;49.342;10.802;2023-02-15T01:44:52;-0.50;99.90
11152;DHT22;5630;49.342;10.802;2023-02-15T01:47:29;-0.40;99.90
11152;DHT22;5630;49.342;10.802;2023-02-15T01:50:21;-0.40;99.90
11152;DHT22;5630;49.342;10.802;2023-02-15T01:55:22;-0.60;99.90
11152;DHT22;5630;49.342;10.802;2023-02-15T01:57:49;-0.70;99.90
11152;DHT22;5630;49.342;10.802;2023-02-15T02:00:15;-0.80;99.90
11152;DHT22;5630;49.342;10.802;2023-02-15T02:02:43;-0.80;99.90
11152;DHT22;5630;49.342;10.802;2023-02-15T02:05:11;-0.90;99.90
11152;DHT22;5630;49.342;10.802;2023-02-15T02:07:39;-1.00;99.90
11152;DHT22;5630;49.342;10.802;2023-02-15T02:10:15;-0.90;99.90
11152;DHT22;5630;49.342;10.802;2023-02-15T02:12:43;-0.90;99.90
11152;DHT22;5630;49.342;10.802;2023-02-15T02:15:09;-1.00;99.90
11152;DHT22;5630;49.342;10.802;2023-02-15T02:20:30;-0.90;99.90
11152;DHT22;5630;49.342;10.802;2023-02-15T02:23:20;-0.80;99.90
11152;DHT22;5630;49.342;10.802;2023-02-15T02:34:56;-0.60;99.90
11152;DHT22;5630;49.342;10.802;2023-02-15T02:39:56;-0.60;99.90
11152;DHT22;5630;49.342;10.802;2023-02-15T02:42:34;-0.60;99.90
11152;DHT22;5630;49.342;10.802;2023-02-15T02:45:24;-0.60;99.90
11152;DHT22;5630;49.342;10.802;2023-02-15T02:48:03;-0.60;99.90
11152;DHT22;5630;49.342;10.802;2023-02-15T02:50:30;-0.50;99.90
11152;DHT22;5630;49.342;10.802;2023-02-15T02:52:58;-0.60;99.90
11152;DHT22;5630;49.342;10.802;2023-02-15T02:58:31;-0.60;99.90
11152;DHT22;5630;49.342;10.802;2023-02-15T03:03:47;-0.60;99.90
11152;DHT22;5630;49.342;10.802;2023-02-15T03:06:20;-0.60;99.90
11152;DHT22;5630;49.342;10.802;2023-02-15T03:08:52;-0.60;99.90
11152;DHT22;5630;49.342;10.802;2023-02-15T03:11:18;-0.60;99.90
11152;DHT22;5630;49.342;10.802;2023-02-15T03:13:47;-0.70;99.90
11152;DHT22;5630;49.342;10.802;2023-02-15T03:16:14;-0.60;99.90
11152;DHT22;5630;49.342;10.802;2023-02-15T03:19:09;-0.60;99.90
11152;DHT22;5630;49.342;10.802;2023-02-15T03:21:43;-0.50;99.90
11152;DHT22;5630;49.342;10.802;2023-02-15T03:24:19;-0.50;99.90
11152;DHT22;5630;49.342;10.802;2023-02-15T03:26:48;-0.70;99.90
11152;DHT22;5630;49.342;10.802;2023-02-15T03:29:16;-0.60;99.90
11152;DHT22;5630;49.342;10.802;2023-02-15T03:31:45;-0.60;99.90
11152;DHT22;5630;49.342;10.802;2023-02-15T03:34:13;-0.60;99.90
11152;DHT22;5630;49.342;10.802;2023-02-15T03:36:51;-0.70;99.90
11152;DHT22;5630;49.342;10.802;2023-02-15T03:39:22;-0.70;99.90
11152;DHT22;5630;49.342;10.802;2023-02-15T03:44:51;-0.70;99.90
11152;DHT22;5630;49.342;10.802;2023-02-15T03:47:22;-0.60;99.90
11152;DHT22;5630;49.342;10.802;2023-02-15T03:50:05;-0.70;99.90
11152;DHT22;5630;49.342;10.802;2023-02-15T03:52:54;-0.80;99.90
11152;DHT22;5630;49.342;10.802;2023-02-15T03:55:20;-0.70;99.90
11152;DHT22;5630;49.342;10.802;2023-02-15T03:57:46;-0.70;99.90
11152;DHT22;5630;49.342;10.802;2023-02-15T04:00:35;-0.90;99.90
11152;DHT22;5630;49.342;10.802;2023-02-15T04:03:34;-1.00;99.90
11152;DHT22;5630;49.342;10.802;2023-02-15T04:06:03;-0.90;99.90
11152;DHT22;5630;49.342;10.802;2023-02-15T04:08:28;-0.90;99.90
11152;DHT22;5630;49.342;10.802;2023-02-15T04:11:12;-0.80;99.90
11152;DHT22;5630;49.342;10.802;2023-02-15T04:13:38;-0.70;99.90
11152;DHT22;5630;49.342;10.802;2023-02-15T04:16:04;-0.80;99.90
11152;DHT22;5630;49.342;10.802;2023-02-15T04:18:41;-0.80;99.90
11152;DHT22;5630;49.342;10.802;2023-02-15T04:21:27;-0.80;99.90
11152;DHT22;5630;49.342;10.802;2023-02-15T04:24:12;-0.80;99.90
11152;DHT22;5630;49.342;10.802;2023-02-15T04:26:56;-0.80;99.90
11152;DHT22;5630;49.342;10.802;2023-02-15T04:29:23;-0.70;99.90
11152;DHT22;5630;49.342;10.802;2023-02-15T04:31:50;-0.80;99.90
11152;DHT22;5630;49.342;10.802;2023-02-15T04:34:16;-0.80;99.90
11152;DHT22;5630;49.342;10.802;2023-02-15T04:36:42;-0.70;99.90
11152;DHT22;5630;49.342;10.802;2023-02-15T04:39:08;-0.80;99.90
11152;DHT22;5630;49.342;10.802;2023-02-15T04:41:34;-0.70;99.90
11152;DHT22;5630;49.342;10.802;2023-02-15T04:44:01;-0.70;99.90
11152;DHT22;5630;49.342;10.802;2023-02-15T04:46:27;-0.70;99.90
11152;DHT22;5630;49.342;10.802;2023-02-15T04:48:53;-0.80;99.90
11152;DHT22;5630;49.342;10.802;2023-02-15T04:51:19;-0.70;99.90
11152;DHT22;5630;49.342;10.802;2023-02-15T04:53:44;-0.80;99.90
11152;DHT22;5630;49.342;10.802;2023-02-15T04:56:10;-0.80;99.90
11152;DHT22;5630;49.342;10.802;2023-02-15T04:58:36;-0.90;99.90
11152;DHT22;5630;49.342;10.802;2023-02-15T05:01:02;-0.80;99.90
11152;DHT22;5630;49.342;10.802;2023-02-15T05:03:28;-0.80;99.90
11152;DHT22;5630;49.342;10.802;2023-02-15T05:05:53;-0.80;99.90
11152;DHT22;5630;49.342;10.802;2023-02-15T05:08:19;-0.80;99.90
11152;DHT22;5630;49.342;10.802;2023-02-15T05:10:47;-0.70;99.90
11152;DHT22;5630;49.342;10.802;2023-02-15T05:13:13;-0.70;99.90
11152;DHT22;5630;49.342;10.802;2023-02-15T05:15:38;-0.70;99.90
11152;DHT22;5630;49.342;10.802;2023-02-15T05:18:04;-0.70;99.90
11152;DHT22;5630;49.342;10.802;2023-02-15T05:20:31;-0.70;99.90
11152;DHT22;5630;49.342;10.802;2023-02-15T05:22:57;-0.80;99.90
11152;DHT22;5630;49.342;10.802;2023-02-15T05:25:22;-0.80;99.90
11152;DHT22;5630;49.342;10.802;2023-02-15T05:28:27;-0.80;99.90
11152;DHT22;5630;49.342;10.802;2023-02-15T05:31:22;-0.80;99.90
11152;DHT22;5630;49.342;10.802;2023-02-15T05:33:48;-0.80;99.90
11152;DHT22;5630;49.342;10.802;2023-02-15T05:36:13;-0.80;99.90
11152;DHT22;5630;49.342;10.802;2023-02-15T05:38:39;-1.00;99.90
11152;DHT22;5630;49.342;10.802;2023-02-15T05:41:06;-1.00;99.90
11152;DHT22;5630;49.342;10.802;2023-02-15T05:43:32;-1.00;99.90
11152;DHT22;5630;49.342;10.802;2023-02-15T05:45:58;-0.90;99.90
11152;DHT22;5630;49.342;10.802;2023-02-15T05:48:25;-1.00;99.90
11152;DHT22;5630;49.342;10.802;2023-02-15T05:51:12;-1.10;99.90
11152;DHT22;5630;49.342;10.802;2023-02-15T05:53:42;-1.00;99.90
11152;DHT22;5630;49.342;10.802;2023-02-15T05:56:09;-1.00;99.90
11152;DHT22;5630;49.342;10.802;2023-02-15T05:58:37;-1.00;99.90
11152;DHT22;5630;49.342;10.802;2023-02-15T06:01:10;-0.90;99.90
11152;DHT22;5630;49.342;10.802;2023-02-15T06:03:36;-0.90;99.90
11152;DHT22;5630;49.342;10.802;2023-02-15T06:06:02;-0.80;99.90
11152;DHT22;5630;49.342;10.802;2023-02-15T06:08:30;-0.90;99.90
11152;DHT22;5630;49.342;10.802;2023-02-15T06:10:55;-1.00;99.90
11152;DHT22;5630;49.342;10.802;2023-02-15T06:13:21;-1.00;99.90
11152;DHT22;5630;49.342;10.802;2023-02-15T06:15:47;-1.00;99.90
11152;DHT22;5630;49.342;10.802;2023-02-15T06:18:12;-1.00;99.90
11152;DHT22;5630;49.342;10.802;2023-02-15T06:20:38;-1.00;99.90
11152;DHT22;5630;49.342;10.802;2023-02-15T06:23:03;-1.10;99.90
11152;DHT22;5630;49.342;10.802;2023-02-15T06:25:29;-1.10;99.90
11152;DHT22;5630;49.342;10.802;2023-02-15T06:27:54;-1.10;99.90
11152;DHT22;5630;49.342;10.802;2023-02-15T06:30:20;-1.10;99.90
11152;DHT22;5630;49.342;10.802;2023-02-15T06:32:45;-1.10;99.90
11152;DHT22;5630;49.342;10.802;2023-02-15T06:35:11;-1.00;99.90
11152;DHT22;5630;49.342;10.802;2023-02-15T06:37:37;-1.00;99.90
11152;DHT22;5630;49.342;10.802;2023-02-15T06:40:03;-1.00;99.90
11152;DHT22;5630;49.342;10.802;2023-02-15T06:42:29;-0.90;99.90
11152;DHT22;5630;49.342;10.802;2023-02-15T06:44:55;-0.90;99.90
11152;DHT22;5630;49.342;10.802;2023-02-15T06:47:20;-0.90;99.90
11152;DHT22;5630;49.342;10.802;2023-02-15T06:49:46;-0.90;99.90
11152;DHT22;5630;49.342;10.802;2023-02-15T06:52:11;-0.90;99.90
11152;DHT22;5630;49.342;10.802;2023-02-15T06:54:37;-0.90;99.90
11152;DHT22;5630;49.342;10.802;2023-02-15T06:57:03;-0.90;99.90
11152;DHT22;5630;49.342;10.802;2023-02-15T06:59:28;-0.90;99.90
11152;DHT22;5630;49.342;10.802;2023-02-15T07:01:54;-0.90;99.90
11152;DHT22;5630;49.342;10.802;2023-02-15T07:04:19;-0.90;99.90
11152;DHT22;5630;49.342;10.802;2023-02-15T07:06:45;-0.90;99.90
11152;DHT22;5630;49.342;10.802;2023-02-15T07:09:11;-0.80;99.90
11152;DHT22;5630;49.342;10.802;2023-02-15T07:11:38;-0.90;99.90
11152;DHT22;5630;49.342;10.802;2023-02-15T07:14:22;-1.00;99.90
11152;DHT22;5630;49.342;10.802;2023-02-15T07:16:47;-1.00;99.90
11152;DHT22;5630;49.342;10.802;2023-02-15T07:19:13;-1.00;99.90
11152;DHT22;5630;49.342;10.802;2023-02-15T07:21:38;0.10;99.90
11152;DHT22;5630;49.342;10.802;2023-02-15T07:24:04;2.30;99.90
11152;DHT22;5630;49.342;10.802;2023-02-15T07:26:31;2.10;99.90
11152;DHT22;5630;49.342;10.802;2023-02-15T07:28:57;1.40;99.90
11152;DHT22;5630;49.342;10.802;2023-02-15T07:31:23;1.10;99.90
11152;DHT22;5630;49.342;10.802;2023-02-15T07:33:48;0.70;99.90
11152;DHT22;5630;49.342;10.802;2023-02-15T07:36:14;0.90;99.90
11152;DHT22;5630;49.342;10.802;2023-02-15T07:38:41;1.50;99.90
11152;DHT22;5630;49.342;10.802;2023-02-15T07:41:12;1.00;99.90
11152;DHT22;5630;49.342;10.802;2023-02-15T07:43:40;0.60;99.90
11152;DHT22;5630;49.342;10.802;2023-02-15T07:46:09;0.30;99.90
11152;DHT22;5630;49.342;10.802;2023-02-15T07:48:35;0.10;99.90
11152;DHT22;5630;49.342;10.802;2023-02-15T07:51:03;-0.10;99.90
11152;DHT22;5630;49.342;10.802;2023-02-15T07:53:29;-0.20;99.90
11152;DHT22;5630;49.342;10.802;2023-02-15T07:56:01;-0.20;99.90
11152;DHT22;5630;49.342;10.802;2023-02-15T07:58:27;-0.20;99.90
11152;DHT22;5630;49.342;10.802;2023-02-15T08:01:13;-0.40;99.90
11152;DHT22;5630;49.342;10.802;2023-02-15T08:03:39;-0.50;99.90
11152;DHT22;5630;49.342;10.802;2023-02-15T08:06:05;-0.50;99.90
11152;DHT22;5630;49.342;10.802;2023-02-15T08:08:34;-0.50;99.90
11152;DHT22;5630;49.342;10.802;2023-02-15T08:13:58;-0.50;99.90
11152;DHT22;5630;49.342;10.802;2023-02-15T08:16:30;-0.50;99.90
11152;DHT22;5630;49.342;10.802;2023-02-15T08:18:57;-0.50;99.90
11152;DHT22;5630;49.342;10.802;2023-02-15T08:21:26;-0.40;99.90
11152;DHT22;5630;49.342;10.802;2023-02-15T08:23:52;-0.40;99.90
11152;DHT22;5630;49.342;10.802;2023-02-15T08:26:18;-0.30;99.90
11152;DHT22;5630;49.342;10.802;2023-02-15T08:28:44;-0.30;99.90
11152;DHT22;5630;49.342;10.802;2023-02-15T08:31:11;-0.40;99.90
11152;DHT22;5630;49.342;10.802;2023-02-15T08:33:39;-0.40;99.90
11152;DHT22;5630;49.342;10.802;2023-02-15T08:36:07;-0.30;99.90
11152;DHT22;5630;49.342;10.802;2023-02-15T08:38:33;-0.30;99.90
11152;DHT22;5630;49.342;10.802;2023-02-15T08:41:13;-0.20;99.90
11152;DHT22;5630;49.342;10.802;2023-02-15T08:43:39;-0.20;99.90
11152;DHT22;5630;49.342;10.802;2023-02-15T08:46:05;-0.30;99.90
11152;DHT22;5630;49.342;10.802;2023-02-15T08:48:31;-0.20;99.90
11152;DHT22;5630;49.342;10.802;2023-02-15T08:50:57;-0.10;99.90
11152;DHT22;5630;49.342;10.802;2023-02-15T08:53:23;0.00;99.90
11152;DHT22;5630;49.342;10.802;2023-02-15T08:55:56;0.00;99.90
11152;DHT22;5630;49.342;10.802;2023-02-15T08:58:22;0.00;99.90
11152;DHT22;5630;49.342;10.802;2023-02-15T09:00:47;0.00;99.90
11152;DHT22;5630;49.342;10.802;2023-02-15T09:03:13;-0.10;99.90
11152;DHT22;5630;49.342;10.802;2023-02-15T09:05:38;-0.10;99.90
11152;DHT22;5630;49.342;10.802;2023-02-15T09:08:04;-0.10;99.90
11152;DHT22;5630;49.342;10.802;2023-02-15T09:10:30;0.00;99.90
11152;DHT22;5630;49.342;10.802;2023-02-15T09:12:55;0.00;99.90
11152;DHT22;5630;49.342;10.802;2023-02-15T09:15:21;0.00;99.90
11152;DHT22;5630;49.342;10.802;2023-02-15T09:17:46;0.10;99.90
11152;DHT22;5630;49.342;10.802;2023-02-15T09:20:12;0.20;99.90
11152;DHT22;5630;49.342;10.802;2023-02-15T09:22:38;0.20;99.90
11152;DHT22;5630;49.342;10.802;2023-02-15T09:25:03;0.20;99.90
11152;DHT22;5630;49.342;10.802;2023-02-15T09:27:30;0.30;99.90
11152;DHT22;5630;49.342;10.802;2023-02-15T09:29:55;0.30;99.90
11152;DHT22;5630;49.342;10.802;2023-02-15T09:32:21;0.40;99.90
11152;DHT22;5630;49.342;10.802;2023-02-15T09:34:47;0.40;99.90
11152;DHT22;5630;49.342;10.802;2023-02-15T09:37:13;0.30;99.90
11152;DHT22;5630;49.342;10.802;2023-02-15T09:39:41;0.40;99.90
11152;DHT22;5630;49.342;10.802;2023-02-15T09:50:54;0.50;99.90
11152;DHT22;5630;49.342;10.802;2023-02-15T09:53:33;0.60;99.90
11152;DHT22;5630;49.342;10.802;2023-02-15T10:01:35;0.60;99.90
11152;DHT22;5630;49.342;10.802;2023-02-15T10:28:33;0.90;99.90
11152;DHT22;5630;49.342;10.802;2023-02-15T10:33:42;1.10;99.90
11152;DHT22;5630;49.342;10.802;2023-02-15T10:50:58;1.00;99.90
11152;DHT22;5630;49.342;10.802;2023-02-15T11:01:33;1.00;99.90
11152;DHT22;5630;49.342;10.802;2023-02-15T11:06:53;1.10;99.90
11152;DHT22;5630;49.342;10.802;2023-02-15T11:09:22;1.20;99.90
11152;DHT22;5630;49.342;10.802;2023-02-15T11:11:54;1.40;99.90
11152;DHT22;5630;49.342;10.802;2023-02-15T11:14:52;1.40;99.90
11152;DHT22;5630;49.342;10.802;2023-02-15T11:18:11;1.40;99.90
11152;DHT22;5630;49.342;10.802;2023-02-15T11:20:36;1.50;99.90
11152;DHT22;5630;49.342;10.802;2023-02-15T11:23:13;1.50;99.90
11152;DHT22;5630;49.342;10.802;2023-02-15T11:25:43;1.50;99.90
11152;DHT22;5630;49.342;10.802;2023-02-15T11:28:19;1.40;99.90
11152;DHT22;5630;49.342;10.802;2023-02-15T11:30:51;1.30;99.90
11152;DHT22;5630;49.342;10.802;2023-02-15T11:33:38;1.40;99.90
11152;DHT22;5630;49.342;10.802;2023-02-15T11:36:17;1.50;99.90
11152;DHT22;5630;49.342;10.802;2023-02-15T11:38:47;1.60;99.90
11152;DHT22;5630;49.342;10.802;2023-02-15T11:41:18;1.70;99.90
11152;DHT22;5630;49.342;10.802;2023-02-15T11:44:11;1.80;99.90
11152;DHT22;5630;49.342;10.802;2023-02-15T11:46:40;1.90;99.90
11152;DHT22;5630;49.342;10.802;2023-02-15T11:49:31;1.90;99.90
11152;DHT22;5630;49.342;10.802;2023-02-15T11:51:57;1.90;99.90
11152;DHT22;5630;49.342;10.802;2023-02-15T11:54:30;2.00;99.90
11152;DHT22;5630;49.342;10.802;2023-02-15T11:57:02;2.10;99.90
11152;DHT22;5630;49.342;10.802;2023-02-15T11:59:34;2.30;99.90
11152;DHT22;5630;49.342;10.802;2023-02-15T12:02:02;2.20;99.90
11152;DHT22;5630;49.342;10.802;2023-02-15T12:04:40;2.30;99.90
11152;DHT22;5630;49.342;10.802;2023-02-15T12:07:12;2.40;99.90
11152;DHT22;5630;49.342;10.802;2023-02-15T12:09:55;2.40;99.90
11152;DHT22;5630;49.342;10.802;2023-02-15T12:12:29;2.50;99.90
11152;DHT22;5630;49.342;10.802;2023-02-15T12:15:02;2.60;99.90
11152;DHT22;5630;49.342;10.802;2023-02-15T12:17:37;2.70;99.90
11152;DHT22;5630;49.342;10.802;2023-02-15T12:22:39;3.00;99.90
11152;DHT22;5630;49.342;10.802;2023-02-15T12:25:23;3.00;99.90
11152;DHT22;5630;49.342;10.802;2023-02-15T12:27:50;3.20;99.90
11152;DHT22;5630;49.342;10.802;2023-02-15T12:33:13;3.40;99.90
11152;DHT22;5630;49.342;10.802;2023-02-15T12:50:40;3.50;99.90
11152;DHT22;5630;49.342;10.802;2023-02-15T12:53:20;4.70;99.90
11152;DHT22;5630;49.342;10.802;2023-02-15T12:55:56;4.80;99.90
11152;DHT22;5630;49.342;10.802;2023-02-15T12:58:25;5.00;99.90
11152;DHT22;5630;49.342;10.802;2023-02-15T13:01:13;5.10;99.90
11152;DHT22;5630;49.342;10.802;2023-02-15T13:08:51;5.60;99.90
11152;DHT22;5630;49.342;10.802;2023-02-15T13:11:26;5.50;99.90
11152;DHT22;5630;49.342;10.802;2023-02-15T13:13:57;5.60;99.90
11152;DHT22;5630;49.342;10.802;2023-02-15T13:18:57;5.60;99.90
11152;DHT22;5630;49.342;10.802;2023-02-15T13:21:26;5.60;99.90
11152;DHT22;5630;49.342;10.802;2023-02-15T13:24:15;5.60;99.90
11152;DHT22;5630;49.342;10.802;2023-02-15T13:26:43;5.80;99.90
11152;DHT22;5630;49.342;10.802;2023-02-15T13:29:28;6.00;99.90
11152;DHT22;5630;49.342;10.802;2023-02-15T13:31:57;6.10;99.90
11152;DHT22;5630;49.342;10.802;2023-02-15T13:42:41;6.40;99.90
11152;DHT22;5630;49.342;10.802;2023-02-15T13:45:30;6.50;99.90
11152;DHT22;5630;49.342;10.802;2023-02-15T13:48:25;6.40;99.90
11152;DHT22;5630;49.342;10.802;2023-02-15T13:51:14;6.60;99.90
11152;DHT22;5630;49.342;10.802;2023-02-15T14:01:58;6.70;99.90
11152;DHT22;5630;49.342;10.802;2023-02-15T14:15:50;6.90;99.90
11152;DHT22;5630;49.342;10.802;2023-02-15T14:18:39;6.90;99.90
11152;DHT22;5630;49.342;10.802;2023-02-15T14:21:19;7.00;99.90
11152;DHT22;5630;49.342;10.802;2023-02-15T14:24:13;7.00;99.90
11152;DHT22;5630;49.342;10.802;2023-02-15T14:26:53;7.00;99.90
11152;DHT22;5630;49.342;10.802;2023-02-15T14:29:40;7.00;99.90
11152;DHT22;5630;49.342;10.802;2023-02-15T14:32:13;7.00;99.90
11152;DHT22;5630;49.342;10.802;2023-02-15T14:34:52;7.00;99.90
11152;DHT22;5630;49.342;10.802;2023-02-15T14:37:26;6.90;99.90
11152;DHT22;5630;49.342;10.802;2023-02-15T14:40:00;6.90;99.90
11152;DHT22;5630;49.342;10.802;2023-02-15T14:43:00;6.90;99.90
11152;DHT22;5630;49.342;10.802;2023-02-15T14:45:38;6.90;99.90
11152;DHT22;5630;49.342;10.802;2023-02-15T14:48:13;6.80;99.90
11152;DHT22;5630;49.342;10.802;2023-02-15T14:50:45;6.70;99.90
11152;DHT22;5630;49.342;10.802;2023-02-15T14:56:18;6.70;99.90
11152;DHT22;5630;49.342;10.802;2023-02-15T15:01:32;6.60;99.90
11152;DHT22;5630;49.342;10.802;2023-02-15T15:04:07;6.60;99.90
11152;DHT22;5630;49.342;10.802;2023-02-15T15:06:38;6.60;99.90
11152;DHT22;5630;49.342;10.802;2023-02-15T15:09:24;6.60;99.90
11152;DHT22;5630;49.342;10.802;2023-02-15T15:11:52;6.50;99.90
11152;DHT22;5630;49.342;10.802;2023-02-15T15:17:01;6.40;99.90
11152;DHT22;5630;49.342;10.802;2023-02-15T15:22:23;6.30;99.90
11152;DHT22;5630;49.342;10.802;2023-02-15T15:24:50;6.20;99.90
11152;DHT22;5630;49.342;10.802;2023-02-15T15:39:04;6.10;99.90
11152;DHT22;5630;49.342;10.802;2023-02-15T15:41:43;6.10;99.90
11152;DHT22;5630;49.342;10.802;2023-02-15T15:50:15;5.90;99.90
11152;DHT22;5630;49.342;10.802;2023-02-15T15:52:46;5.90;99.90
11152;DHT22;5630;49.342;10.802;2023-02-15T15:55:19;5.80;99.90
11152;DHT22;5630;49.342;10.802;2023-02-15T15:57:50;5.70;99.90
11152;DHT22;5630;49.342;10.802;2023-02-15T16:02:56;5.70;99.90
11152;DHT22;5630;49.342;10.802;2023-02-15T16:05:22;5.60;99.90
11152;DHT22;5630;49.342;10.802;2023-02-15T16:07:48;5.60;99.90
11152;DHT22;5630;49.342;10.802;2023-02-15T16:10:23;5.50;99.90
11152;DHT22;5630;49.342;10.802;2023-02-15T16:12:51;5.50;99.90
11152;DHT22;5630;49.342;10.802;2023-02-15T16:15:23;5.40;99.90
11152;DHT22;5630;49.342;10.802;2023-02-15T16:17:55;5.40;99.90
11152;DHT22;5630;49.342;10.802;2023-02-15T16:20:36;5.40;99.90
11152;DHT22;5630;49.342;10.802;2023-02-15T16:26:18;5.30;99.90
11152;DHT22;5630;49.342;10.802;2023-02-15T16:28:49;5.30;99.90
11152;DHT22;5630;49.342;10.802;2023-02-15T16:31:16;5.20;99.90
11152;DHT22;5630;49.342;10.802;2023-02-15T16:33:42;5.10;99.90
11152;DHT22;5630;49.342;10.802;2023-02-15T16:36:37;5.10;99.90
11152;DHT22;5630;49.342;10.802;2023-02-15T16:39:08;5.00;99.90
11152;DHT22;5630;49.342;10.802;2023-02-15T16:41:35;5.00;99.90
11152;DHT22;5630;49.342;10.802;2023-02-15T16:44:06;4.90;99.90
11152;DHT22;5630;49.342;10.802;2023-02-15T16:46:40;4.80;99.90
11152;DHT22;5630;49.342;10.802;2023-02-15T16:49:21;4.70;99.90
11152;DHT22;5630;49.342;10.802;2023-02-15T16:51:56;4.70;99.90
11152;DHT22;5630;49.342;10.802;2023-02-15T16:54:24;6.30;99.90
11152;DHT22;5630;49.342;10.802;2023-02-15T16:56:51;6.20;99.90
11152;DHT22;5630;49.342;10.802;2023-02-15T16:59:34;6.00;99.90
11152;DHT22;5630;49.342;10.802;2023-02-15T17:02:04;5.70;99.90
11152;DHT22;5630;49.342;10.802;2023-02-15T17:04:31;5.40;99.90
11152;DHT22;5630;49.342;10.802;2023-02-15T17:09:59;4.90;99.90
11152;DHT22;5630;49.342;10.802;2023-02-15T17:12:48;4.70;99.90
11152;DHT22;5630;49.342;10.802;2023-02-15T17:18:16;4.30;99.90
11152;DHT22;5630;49.342;10.802;2023-02-15T17:20:44;4.30;99.90
11152;DHT22;5630;49.342;10.802;2023-02-15T17:23:30;4.20;99.90
11152;DHT22;5630;49.342;10.802;2023-02-15T17:25:57;3.90;99.90
11152;DHT22;5630;49.342;10.802;2023-02-15T17:28:28;3.90;99.90
11152;DHT22;5630;49.342;10.802;2023-02-15T17:30:55;3.80;99.90
11152;DHT22;5630;49.342;10.802;2023-02-15T17:36:17;3.60;99.90
11152;DHT22;5630;49.342;10.802;2023-02-15T17:39:04;3.60;99.90
11152;DHT22;5630;49.342;10.802;2023-02-15T17:41:32;3.50;99.90
11152;DHT22;5630;49.342;10.802;2023-02-15T17:44:00;3.40;99.90
11152;DHT22;5630;49.342;10.802;2023-02-15T17:46:26;3.30;99.90
11152;DHT22;5630;49.342;10.802;2023-02-15T17:48:55;3.30;99.90
11152;DHT22;5630;49.342;10.802;2023-02-15T17:51:21;3.20;99.90
11152;DHT22;5630;49.342;10.802;2023-02-15T17:53:48;3.10;99.90
11152;DHT22;5630;49.342;10.802;2023-02-15T17:56:37;3.00;99.90
11152;DHT22;5630;49.342;10.802;2023-02-15T17:59:04;2.90;99.90
11152;DHT22;5630;49.342;10.802;2023-02-15T18:01:37;2.80;99.90
11152;DHT22;5630;49.342;10.802;2023-02-15T18:04:25;2.70;99.90
11152;DHT22;5630;49.342;10.802;2023-02-15T18:07:12;2.60;99.90
11152;DHT22;5630;49.342;10.802;2023-02-15T18:09:56;2.60;99.90
11152;DHT22;5630;49.342;10.802;2023-02-15T18:12:40;2.50;99.90
11152;DHT22;5630;49.342;10.802;2023-02-15T18:15:06;2.50;99.90
11152;DHT22;5630;49.342;10.802;2023-02-15T18:17:45;2.40;99.90
11152;DHT22;5630;49.342;10.802;2023-02-15T18:20:28;2.40;99.90
11152;DHT22;5630;49.342;10.802;2023-02-15T18:22:55;2.30;99.90
11152;DHT22;5630;49.342;10.802;2023-02-15T18:25:22;2.30;99.90
11152;DHT22;5630;49.342;10.802;2023-02-15T18:27:49;2.30;99.90
11152;DHT22;5630;49.342;10.802;2023-02-15T18:30:17;2.30;99.90
11152;DHT22;5630;49.342;10.802;2023-02-15T18:32:44;2.20;99.90
11152;DHT22;5630;49.342;10.802;2023-02-15T18:35:18;2.20;99.90
11152;DHT22;5630;49.342;10.802;2023-02-15T18:37:45;2.20;99.90
11152;DHT22;5630;49.342;10.802;2023-02-15T18:40:15;2.10;99.90
11152;DHT22;5630;49.342;10.802;2023-02-15T18:42:42;2.00;99.90
11152;DHT22;5630;49.342;10.802;2023-02-15T18:45:34;2.00;99.90
11152;DHT22;5630;49.342;10.802;2023-02-15T18:48:02;1.90;99.90
11152;DHT22;5630;49.342;10.802;2023-02-15T18:50:30;1.90;99.90
11152;DHT22;5630;49.342;10.802;2023-02-15T18:52:57;1.90;99.90
11152;DHT22;5630;49.342;10.802;2023-02-15T18:55:25;1.80;99.90
11152;DHT22;5630;49.342;10.802;2023-02-15T18:57:53;1.80;99.90
11152;DHT22;5630;49.342;10.802;2023-02-15T19:00:28;1.80;99.90
11152;DHT22;5630;49.342;10.802;2023-02-15T19:02:54;1.70;99.90
11152;DHT22;5630;49.342;10.802;2023-02-15T19:05:21;1.60;99.90
11152;DHT22;5630;49.342;10.802;2023-02-15T19:07:47;1.60;99.90
11152;DHT22;5630;49.342;10.802;2023-02-15T19:10:20;1.60;99.90
11152;DHT22;5630;49.342;10.802;2023-02-15T19:12:47;1.50;99.90
11152;DHT22;5630;49.342;10.802;2023-02-15T19:15:21;1.50;99.90
11152;DHT22;5630;49.342;10.802;2023-02-15T19:17:47;1.40;99.90